createdAt,value
2023-02-04T00:02:00.151Z,26.20
2023-02-04T00:04:26.641Z,30.50
2023-02-04T00:06:53.269Z,33.90
2023-02-04T00:09:19.722Z,23.80
2023-02-04T00:11:46.282Z,20.63
2023-02-04T00:14:12.907Z,19.77
2023-02-04T00:16:39.442Z,29.70
2023-02-04T00:19:05.938Z,28.20
2023-02-04T00:21:32.473Z,25.17
2023-02-04T00:23:59.090Z,28.27
2023-02-04T00:26:25.577Z,17.43
2023-02-04T00:28:52.054Z,25.70
2023-02-04T00:31:18.669Z,18.03
2023-02-04T00:33:45.225Z,28.50
2023-02-04T00:36:11.951Z,16.97
2023-02-04T00:38:38.445Z,27.47
2023-02-04T00:41:06.490Z,33.63
2023-02-04T00:43:33.006Z,26.33
2023-02-04T00:45:59.673Z,33.73
2023-02-04T00:48:26.897Z,30.80
2023-02-04T00:50:54.094Z,20.03
2023-02-04T00:53:20.600Z,23.03
2023-02-04T00:55:47.145Z,24.87
2023-02-04T00:58:13.766Z,22.60
2023-02-04T01:00:40.447Z,18.87
2023-02-04T01:03:07.171Z,26.03
2023-02-04T01:05:33.953Z,24.97
2023-02-04T01:08:00.531Z,28.90
2023-02-04T01:10:27.170Z,21.60
2023-02-04T01:12:53.884Z,25.70
2023-02-04T01:15:20.412Z,30.50
2023-02-04T01:17:47.114Z,34.13
2023-02-04T01:20:13.629Z,14.33
2023-02-04T01:22:40.271Z,24.83
2023-02-04T01:25:07.411Z,33.60
2023-02-04T01:27:33.911Z,20.83
2023-02-04T01:30:00.580Z,23.50
2023-02-04T01:32:27.119Z,15.47
2023-02-04T01:34:53.965Z,24.23
2023-02-04T01:37:21.132Z,25.73
2023-02-04T01:39:47.678Z,20.27
2023-02-04T01:42:14.555Z,33.10
2023-02-04T01:44:41.256Z,23.00
2023-02-04T01:47:07.902Z,22.53
2023-02-04T01:49:34.600Z,16.20
2023-02-04T01:52:02.279Z,29.03
2023-02-04T01:54:28.958Z,21.03
2023-02-04T01:56:55.712Z,22.23
2023-02-04T01:59:22.934Z,23.37
2023-02-04T02:01:53.706Z,28.87
2023-02-04T02:04:28.464Z,19.43
2023-02-04T02:06:58.680Z,28.30
2023-02-04T02:09:29.806Z,25.40
2023-02-04T02:11:56.660Z,30.83
2023-02-04T02:14:23.900Z,24.83
2023-02-04T02:16:50.469Z,29.87
2023-02-04T02:19:22.404Z,20.73
2023-02-04T02:22:28.051Z,32.00
2023-02-04T02:24:54.560Z,25.63
2023-02-04T02:27:22.158Z,32.63
2023-02-04T02:29:48.932Z,20.90
2023-02-04T02:32:15.721Z,26.37
2023-02-04T02:34:42.986Z,25.53
2023-02-04T02:37:09.531Z,28.90
2023-02-04T02:39:38.439Z,25.23
2023-02-04T02:42:05.128Z,32.87
2023-02-04T02:44:32.311Z,38.10
2023-02-04T02:46:59.042Z,36.43
2023-02-04T02:49:26.542Z,29.03
2023-02-04T02:51:53.445Z,27.70
2023-02-04T02:54:24.328Z,32.83
2023-02-04T02:56:51.706Z,33.23
2023-02-04T02:59:18.747Z,30.27
2023-02-04T03:01:48.260Z,22.77
2023-02-04T03:04:15.618Z,20.90
2023-02-04T03:06:42.187Z,26.00
2023-02-04T03:09:08.900Z,31.80
2023-02-04T03:11:36.422Z,34.07
2023-02-04T03:14:04.276Z,22.80
2023-02-04T03:16:32.860Z,23.33
2023-02-04T03:19:03.085Z,27.27
2023-02-04T03:21:29.654Z,33.60
2023-02-04T03:23:56.822Z,21.50
2023-02-04T03:26:24.962Z,27.53
2023-02-04T03:28:52.783Z,34.30
2023-02-04T03:31:19.426Z,33.13
2023-02-04T03:33:45.952Z,35.67
2023-02-04T03:36:12.520Z,29.00
2023-02-04T03:38:39.133Z,41.50
2023-02-04T03:41:06.047Z,35.10
2023-02-04T03:43:34.067Z,24.50
2023-02-04T03:46:00.720Z,35.13
2023-02-04T03:48:27.433Z,27.37
2023-02-04T03:50:53.927Z,31.33
2023-02-04T03:53:22.077Z,25.70
2023-02-04T03:55:48.553Z,32.93
2023-02-04T03:58:15.027Z,26.53
2023-02-04T04:00:41.504Z,23.07
2023-02-04T04:03:08.086Z,25.60
2023-02-04T04:05:34.984Z,27.80
2023-02-04T04:08:01.686Z,29.40
2023-02-04T04:10:29.450Z,23.83
2023-02-04T04:12:56.303Z,37.03
2023-02-04T04:15:22.933Z,26.07
2023-02-04T04:17:49.712Z,22.90
2023-02-04T04:20:16.413Z,30.33
2023-02-04T04:22:42.918Z,24.97
2023-02-04T04:25:09.461Z,20.50
2023-02-04T04:27:35.953Z,29.23
2023-02-04T04:30:03.156Z,19.07
2023-02-04T04:32:29.759Z,20.67
2023-02-04T04:34:56.260Z,21.80
2023-02-04T04:37:22.733Z,22.53
2023-02-04T04:39:49.437Z,22.90
2023-02-04T04:42:15.972Z,22.77
2023-02-04T04:44:42.810Z,21.47
2023-02-04T04:47:09.419Z,31.97
2023-02-04T04:49:35.897Z,31.70
2023-02-04T04:52:02.388Z,32.00
2023-02-04T04:54:28.842Z,19.90
2023-02-04T04:56:55.658Z,26.27
2023-02-04T04:59:22.220Z,22.20
2023-02-04T05:01:48.800Z,28.73
2023-02-04T05:04:15.319Z,25.83
2023-02-04T05:06:41.948Z,29.10
2023-02-04T05:09:09.711Z,32.03
2023-02-04T05:11:36.305Z,34.03
2023-02-04T05:14:02.850Z,29.33
2023-02-04T05:16:29.485Z,27.77
2023-02-04T05:18:56.463Z,27.17
2023-02-04T05:21:22.950Z,21.87
2023-02-04T05:23:49.396Z,33.80
2023-02-04T05:26:29.135Z,22.00
2023-02-04T05:28:56.241Z,32.00
2023-02-04T05:31:22.856Z,31.13
2023-02-04T05:33:49.486Z,15.77
2023-02-04T05:36:16.193Z,25.77
2023-02-04T05:38:42.687Z,26.60
2023-02-04T05:41:09.181Z,26.70
2023-02-04T05:43:36.131Z,31.13
2023-02-04T05:46:03.076Z,31.07
2023-02-04T05:48:29.594Z,27.80
2023-02-04T05:50:56.198Z,24.73
2023-02-04T05:53:22.665Z,21.30
2023-02-04T05:55:49.122Z,24.17
2023-02-04T05:58:15.590Z,38.77
2023-02-04T06:00:42.376Z,20.97
2023-02-04T06:03:09.127Z,30.33
2023-02-04T06:05:36.008Z,33.47
2023-02-04T06:08:02.557Z,31.10
2023-02-04T06:10:29.872Z,24.80
2023-02-04T06:12:56.572Z,29.93
2023-02-04T06:15:23.069Z,25.93
2023-02-04T06:17:49.546Z,23.03
2023-02-04T06:20:16.260Z,22.43
2023-02-04T06:22:43.024Z,32.47
2023-02-04T06:25:09.517Z,26.87
2023-02-04T06:27:36.191Z,23.77
2023-02-04T06:30:02.807Z,26.60
2023-02-04T06:32:29.372Z,27.50
2023-02-04T06:34:55.913Z,22.77
2023-02-04T06:37:24.304Z,33.33
2023-02-04T06:39:51.844Z,29.63
2023-02-04T06:42:18.429Z,26.53
2023-02-04T06:44:45.366Z,22.63
2023-02-04T06:47:12.014Z,23.47
2023-02-04T06:49:38.491Z,24.17
2023-02-04T06:52:05.717Z,20.03
2023-02-04T06:54:32.255Z,25.00
2023-02-04T06:57:06.456Z,32.53
2023-02-04T06:59:40.395Z,24.70
2023-02-04T07:02:08.124Z,25.93
2023-02-04T07:04:35.294Z,31.87
2023-02-04T07:07:01.939Z,29.83
2023-02-04T07:09:28.441Z,25.90
2023-02-04T07:11:55.010Z,21.57
2023-02-04T07:14:21.664Z,28.10
2023-02-04T07:16:48.187Z,24.53
2023-02-04T07:19:15.140Z,22.00
2023-02-04T07:21:41.708Z,25.43
2023-02-04T07:24:08.282Z,16.83
2023-02-04T07:26:34.834Z,25.67
2023-02-04T07:29:01.340Z,20.17
2023-02-04T07:31:28.070Z,18.90
2023-02-04T07:33:54.616Z,36.70
2023-02-04T07:36:21.284Z,24.27
2023-02-04T07:38:47.782Z,19.80
2023-02-04T07:41:14.265Z,24.23
2023-02-04T07:43:40.930Z,24.33
2023-02-04T07:46:07.469Z,24.40
2023-02-04T07:48:34.214Z,22.67
2023-02-04T07:51:00.793Z,25.03
2023-02-04T07:53:28.334Z,20.23
2023-02-04T07:55:54.908Z,25.60
2023-02-04T07:58:21.440Z,22.23
2023-02-04T08:00:47.912Z,29.63
2023-02-04T08:03:14.447Z,34.77
2023-02-04T08:05:40.913Z,17.50
2023-02-04T08:08:07.522Z,30.83
2023-02-04T08:10:34.454Z,20.90
2023-02-04T08:13:01.102Z,24.77
2023-02-04T08:15:27.731Z,25.03
2023-02-04T08:17:54.231Z,20.73
2023-02-04T08:20:20.740Z,27.43
2023-02-04T08:22:47.252Z,23.60
2023-02-04T08:25:13.898Z,22.63
2023-02-04T08:27:40.499Z,28.23
2023-02-04T08:30:07.920Z,28.27
2023-02-04T08:32:34.444Z,27.13
2023-02-04T08:35:01.148Z,29.80
2023-02-04T08:37:27.730Z,17.43
2023-02-04T08:39:54.464Z,33.83
2023-02-04T08:42:21.008Z,20.90
2023-02-04T08:44:47.537Z,33.57
2023-02-04T08:47:14.171Z,28.03
2023-02-04T08:49:40.828Z,39.00
2023-02-04T08:52:07.964Z,20.97
2023-02-04T08:54:35.040Z,25.33
2023-02-04T08:57:02.078Z,34.53
2023-02-04T08:59:28.621Z,36.90
2023-02-04T09:01:55.259Z,47.37
2023-02-04T09:04:23.322Z,26.53
2023-02-04T09:06:50.716Z,25.77
2023-02-04T09:09:17.807Z,27.80
2023-02-04T09:11:44.630Z,21.70
2023-02-04T09:14:11.454Z,22.67
2023-02-04T09:16:38.080Z,37.60
2023-02-04T09:19:05.516Z,23.13
2023-02-04T09:21:32.277Z,21.30
2023-02-04T09:23:58.858Z,28.63
2023-02-04T09:26:25.793Z,26.47
2023-02-04T09:28:52.373Z,32.93
2023-02-04T09:31:19.146Z,30.13
2023-02-04T09:33:45.853Z,22.80
2023-02-04T09:36:12.501Z,19.60
2023-02-04T09:38:39.069Z,30.90
2023-02-04T09:41:11.212Z,29.47
2023-02-04T09:43:43.270Z,24.17
2023-02-04T09:46:22.247Z,22.50
2023-02-04T09:48:49.559Z,24.47
2023-02-04T09:51:21.956Z,25.57
2023-02-04T09:53:49.003Z,26.73
2023-02-04T09:56:15.654Z,21.23
2023-02-04T09:58:42.507Z,23.13
2023-02-04T10:01:16.034Z,28.30
2023-02-04T10:03:47.620Z,22.00
2023-02-04T10:06:19.372Z,24.17
2023-02-04T10:08:47.709Z,21.07
2023-02-04T10:11:15.384Z,17.27
2023-02-04T10:13:50.205Z,24.50
2023-02-04T10:16:29.865Z,20.67
2023-02-04T10:19:04.712Z,14.20
2023-02-04T10:21:32.588Z,27.40
2023-02-04T10:24:00.821Z,25.60
2023-02-04T10:26:29.424Z,27.97
2023-02-04T10:29:33.037Z,16.83
2023-02-04T10:31:59.773Z,21.10
2023-02-04T10:34:38.192Z,28.40
2023-02-04T10:37:18.592Z,19.50
2023-02-04T10:39:45.064Z,28.47
2023-02-04T10:42:26.419Z,21.77
2023-02-04T10:44:53.315Z,17.37
2023-02-04T10:47:22.631Z,34.37
2023-02-04T10:50:16.028Z,24.00
2023-02-04T10:52:44.514Z,26.97
2023-02-04T10:55:14.940Z,32.23
2023-02-04T10:57:42.876Z,22.47
2023-02-04T11:00:16.016Z,21.30
2023-02-04T11:02:45.874Z,21.70
2023-02-04T11:05:18.696Z,17.90
2023-02-04T11:07:46.996Z,20.60
2023-02-04T11:10:19.131Z,20.70
2023-02-04T11:12:59.472Z,18.70
2023-02-04T11:15:50.772Z,20.27
2023-02-04T11:18:20.959Z,22.27
2023-02-04T11:20:49.109Z,26.87
2023-02-04T11:23:29.765Z,19.93
2023-02-04T11:26:10.104Z,16.53
2023-02-04T11:28:48.021Z,24.67
2023-02-04T11:31:27.056Z,17.53
2023-02-04T11:34:23.079Z,17.50
2023-02-04T11:36:56.252Z,16.53
2023-02-04T11:39:23.200Z,24.67
2023-02-04T11:41:49.869Z,18.80
2023-02-04T11:44:17.364Z,21.43
2023-02-04T11:46:44.011Z,31.70
2023-02-04T11:49:17.962Z,20.50
2023-02-04T11:51:47.295Z,23.70
2023-02-04T11:54:17.134Z,20.97
2023-02-04T11:56:43.588Z,22.70
2023-02-04T11:59:12.119Z,20.10
2023-02-04T12:01:39.072Z,28.70
2023-02-04T12:04:08.328Z,27.00
2023-02-04T12:06:36.728Z,15.47
2023-02-04T12:09:24.321Z,18.80
2023-02-04T12:12:04.460Z,13.23
2023-02-04T12:14:36.794Z,19.30
2023-02-04T12:17:20.370Z,19.90
2023-02-04T12:19:46.883Z,19.13
2023-02-04T12:22:14.757Z,16.90
2023-02-04T12:24:41.635Z,22.30
2023-02-04T12:27:08.179Z,18.27
2023-02-04T12:29:34.627Z,19.80
2023-02-04T12:32:01.193Z,19.47
2023-02-04T12:34:28.217Z,28.73
2023-02-04T12:36:54.692Z,22.07
2023-02-04T12:39:21.179Z,14.30
2023-02-04T12:41:47.940Z,30.20
2023-02-04T12:44:15.338Z,17.73
2023-02-04T12:46:41.945Z,17.53
2023-02-04T12:49:09.710Z,21.40
2023-02-04T12:51:36.465Z,25.80
2023-02-04T12:54:03.006Z,16.00
2023-02-04T12:56:29.490Z,20.53
2023-02-04T12:58:56.044Z,17.03
2023-02-04T13:01:22.578Z,16.43
2023-02-04T13:03:49.127Z,16.60
2023-02-04T13:06:15.626Z,20.70
2023-02-04T13:08:42.624Z,24.43
2023-02-04T13:11:09.150Z,16.70
2023-02-04T13:13:35.622Z,16.40
2023-02-04T13:16:02.181Z,21.43
2023-02-04T13:18:28.816Z,21.23
2023-02-04T13:20:55.289Z,21.40
2023-02-04T13:23:21.811Z,18.27
2023-02-04T13:25:48.425Z,24.97
2023-02-04T13:28:15.014Z,18.87
2023-02-04T13:30:41.574Z,24.80
2023-02-04T13:33:08.158Z,29.47
2023-02-04T13:35:35.007Z,22.13
2023-02-04T13:38:01.834Z,18.17
2023-02-04T13:40:28.448Z,14.17
2023-02-04T13:42:55.021Z,16.80
2023-02-04T13:45:21.892Z,20.90
2023-02-04T13:47:48.816Z,20.50
2023-02-04T13:50:16.745Z,26.23
2023-02-04T13:52:43.320Z,20.40
2023-02-04T13:55:09.908Z,21.83
2023-02-04T13:57:37.842Z,18.67
2023-02-04T14:00:07.284Z,24.90
2023-02-04T14:02:34.395Z,21.07
2023-02-04T14:05:01.688Z,23.80
2023-02-04T14:07:28.378Z,22.77
2023-02-04T14:09:54.882Z,16.10
2023-02-04T14:12:21.397Z,31.73
2023-02-04T14:14:48.243Z,15.77
2023-02-04T14:17:14.733Z,16.17
2023-02-04T14:19:41.271Z,24.40
2023-02-04T14:22:07.903Z,21.43
2023-02-04T14:24:35.182Z,19.27
2023-02-04T14:27:07.269Z,18.63
2023-02-04T14:29:36.652Z,14.53
2023-02-04T14:32:04.661Z,15.77
2023-02-04T14:34:31.427Z,10.93
2023-02-04T14:36:58.196Z,23.27
2023-02-04T14:39:24.983Z,15.73
2023-02-04T14:41:51.500Z,22.33
2023-02-04T14:44:20.680Z,19.60
2023-02-04T14:46:48.857Z,22.27
2023-02-04T14:49:16.688Z,19.73
2023-02-04T14:51:43.603Z,16.27
2023-02-04T14:54:11.477Z,12.83
2023-02-04T14:56:38.926Z,16.17
2023-02-04T14:59:05.649Z,14.23
2023-02-04T15:01:32.646Z,12.33
2023-02-04T15:03:59.814Z,18.33
2023-02-04T15:06:26.886Z,31.47
2023-02-04T15:08:53.914Z,24.10
2023-02-04T15:11:20.570Z,23.40
2023-02-04T15:13:47.292Z,15.67
2023-02-04T15:16:14.912Z,15.03
2023-02-04T15:18:41.879Z,16.00
2023-02-04T15:21:09.063Z,26.57
2023-02-04T15:23:36.044Z,20.93
2023-02-04T15:26:03.625Z,12.97
2023-02-04T15:28:31.404Z,18.93
2023-02-04T15:30:58.440Z,23.60
2023-02-04T15:33:25.111Z,16.40
2023-02-04T15:35:51.805Z,22.57
2023-02-04T15:38:18.496Z,16.03
2023-02-04T15:40:45.153Z,22.60
2023-02-04T15:43:11.788Z,21.80
2023-02-04T15:45:41.373Z,18.80
2023-02-04T15:48:08.487Z,25.20
2023-02-04T15:50:35.259Z,16.97
2023-02-04T15:53:01.835Z,19.63
2023-02-04T15:55:28.669Z,18.50
2023-02-04T15:57:55.408Z,20.90
2023-02-04T16:00:22.929Z,20.37
2023-02-04T16:02:50.274Z,15.17
2023-02-04T16:05:17.167Z,10.87
2023-02-04T16:07:43.867Z,11.10
2023-02-04T16:10:10.972Z,11.90
2023-02-04T16:12:38.432Z,11.50
2023-02-04T16:15:05.459Z,16.07
2023-02-04T16:17:32.099Z,14.70
2023-02-04T16:19:58.764Z,18.97
2023-02-04T16:22:25.454Z,14.97
2023-02-04T16:24:52.890Z,12.30
2023-02-04T16:27:19.984Z,12.57
2023-02-04T16:29:46.624Z,22.97
2023-02-04T16:32:13.851Z,15.10
2023-02-04T16:34:40.614Z,15.13
2023-02-04T16:37:07.659Z,15.40
2023-02-04T16:39:34.322Z,19.70
2023-02-04T16:42:01.291Z,19.63
2023-02-04T16:44:27.928Z,15.33
2023-02-04T16:46:55.061Z,16.03
2023-02-04T16:49:22.279Z,18.50
2023-02-04T16:51:49.154Z,23.80
2023-02-04T16:54:15.848Z,14.00
2023-02-04T16:56:42.446Z,21.43
2023-02-04T16:59:09.416Z,20.17
2023-02-04T17:01:36.619Z,12.73
2023-02-04T17:04:03.512Z,13.57
2023-02-04T17:06:32.118Z,19.00
2023-02-04T17:08:58.945Z,21.60
2023-02-04T17:11:28.971Z,18.00
2023-02-04T17:14:00.876Z,22.00
2023-02-04T17:16:27.610Z,16.37
2023-02-04T17:18:57.686Z,25.00
2023-02-04T17:21:25.601Z,19.17
2023-02-04T17:23:52.629Z,17.93
2023-02-04T17:26:19.458Z,15.67
2023-02-04T17:28:46.020Z,18.53
2023-02-04T17:31:12.879Z,37.53
2023-02-04T17:33:39.840Z,27.10
2023-02-04T17:36:07.113Z,22.73
2023-02-04T17:38:33.793Z,28.97
2023-02-04T17:41:01.225Z,32.50
2023-02-04T17:43:27.720Z,30.40
2023-02-04T17:45:54.202Z,24.23
2023-02-04T17:48:20.656Z,22.63
2023-02-04T17:50:47.216Z,20.30
2023-02-04T17:53:13.792Z,23.20
2023-02-04T17:55:40.547Z,27.40
2023-02-04T17:58:16.067Z,28.37
2023-02-04T18:00:47.036Z,27.50
2023-02-04T18:03:16.866Z,32.13
2023-02-04T18:05:46.015Z,24.53
2023-02-04T18:08:16.720Z,25.67
2023-02-04T18:10:45.442Z,38.17
2023-02-04T18:13:23.405Z,19.23
2023-02-04T18:15:51.778Z,15.43
2023-02-04T18:18:24.000Z,27.63
2023-02-04T18:21:02.958Z,24.50
2023-02-04T18:23:30.622Z,26.50
2023-02-04T18:26:10.802Z,28.47
2023-02-04T18:28:45.649Z,28.50
2023-02-04T18:31:37.942Z,27.03
2023-02-04T18:34:16.815Z,33.83
2023-02-04T18:36:43.276Z,34.10
2023-02-04T18:39:24.564Z,33.97
2023-02-04T18:41:51.864Z,46.77
2023-02-04T18:44:30.507Z,39.80
2023-02-04T18:46:57.286Z,45.53
2023-02-04T18:49:42.453Z,46.80
2023-02-04T18:52:20.270Z,47.10
2023-02-04T18:54:58.177Z,50.67
2023-02-04T18:57:39.298Z,41.47
2023-02-04T19:00:09.150Z,49.13
2023-02-04T19:02:42.592Z,51.27
2023-02-04T19:05:34.120Z,52.47
2023-02-04T19:08:03.822Z,55.77
2023-02-04T19:10:34.544Z,67.13
2023-02-04T19:13:17.354Z,62.90
2023-02-04T19:15:44.602Z,65.90
2023-02-04T19:18:22.385Z,75.83
2023-02-04T19:20:49.371Z,63.43
2023-02-04T19:23:19.518Z,61.27
2023-02-04T19:25:48.084Z,59.07
2023-02-04T19:28:24.990Z,54.60
2023-02-04T19:30:58.237Z,55.00
2023-02-04T19:33:32.954Z,53.90
2023-02-04T19:36:02.604Z,52.97
2023-02-04T19:38:45.066Z,57.30
2023-02-04T19:41:21.089Z,41.13
2023-02-04T19:43:47.707Z,53.63
2023-02-04T19:46:23.964Z,53.60
2023-02-04T19:48:51.277Z,45.83
2023-02-04T19:51:17.891Z,54.43
2023-02-04T19:53:46.976Z,46.73
2023-02-04T19:56:32.121Z,58.00
2023-02-04T19:59:06.169Z,45.90
2023-02-04T20:01:33.471Z,52.97
2023-02-04T20:04:02.852Z,47.80
2023-02-04T20:06:32.832Z,53.27
2023-02-04T20:09:16.633Z,49.93
2023-02-04T20:12:09.946Z,48.03
2023-02-04T20:14:55.177Z,48.13
2023-02-04T20:17:27.003Z,49.17
2023-02-04T20:19:53.539Z,41.90
2023-02-04T20:22:22.093Z,43.13
2023-02-04T20:24:56.893Z,44.40
2023-02-04T20:27:29.362Z,35.77
2023-02-04T20:30:01.865Z,46.90
2023-02-04T20:32:30.092Z,53.97
2023-02-04T20:35:19.645Z,48.97
2023-02-04T20:37:50.103Z,44.40
2023-02-04T20:40:19.495Z,39.93
2023-02-04T20:42:46.931Z,40.93
2023-02-04T20:45:33.020Z,33.87
2023-02-04T20:48:20.026Z,30.73
2023-02-04T20:50:54.725Z,37.73
2023-02-04T20:53:21.251Z,36.57
2023-02-04T20:55:52.129Z,34.97
2023-02-04T20:58:23.390Z,32.80
2023-02-04T21:00:52.536Z,34.50
2023-02-04T21:03:22.031Z,39.73
2023-02-04T21:05:50.254Z,34.23
2023-02-04T21:08:29.510Z,34.73
2023-02-04T21:10:57.367Z,31.00
2023-02-04T21:13:24.652Z,37.80
2023-02-04T21:15:51.565Z,30.70
2023-02-04T21:18:18.696Z,26.37
2023-02-04T21:20:45.215Z,26.23
2023-02-04T21:23:11.919Z,31.40
2023-02-04T21:25:38.636Z,25.77
2023-02-04T21:28:06.188Z,36.03
2023-02-04T21:30:32.842Z,32.83
2023-02-04T21:33:00.149Z,29.20
2023-02-04T21:35:26.762Z,27.60
2023-02-04T21:37:54.521Z,29.47
2023-02-04T21:40:22.084Z,32.13
2023-02-04T21:42:52.167Z,32.63
2023-02-04T21:45:20.113Z,36.53
2023-02-04T21:47:47.818Z,28.33
2023-02-04T21:50:15.459Z,27.30
2023-02-04T21:52:42.632Z,33.33
2023-02-04T21:55:10.477Z,23.27
2023-02-04T21:57:37.099Z,27.10
2023-02-04T22:00:05.978Z,21.37
2023-02-04T22:02:32.513Z,20.70
2023-02-04T22:04:59.143Z,27.67
2023-02-04T22:07:25.892Z,24.57
2023-02-04T22:09:52.517Z,19.90
2023-02-04T22:12:19.706Z,19.53
2023-02-04T22:14:46.223Z,22.63
2023-02-04T22:17:12.727Z,26.20
2023-02-04T22:19:39.248Z,22.97
2023-02-04T22:22:05.759Z,16.30
2023-02-04T22:24:32.209Z,25.90
2023-02-04T22:26:59.359Z,29.33
2023-02-04T22:29:29.863Z,24.33
2023-02-04T22:31:56.650Z,25.17
2023-02-04T22:34:23.181Z,25.83
2023-02-04T22:36:49.694Z,27.83
2023-02-04T22:39:16.172Z,21.13
2023-02-04T22:41:42.878Z,19.20
2023-02-04T22:44:09.414Z,27.63
2023-02-04T22:46:36.011Z,21.10
2023-02-04T22:49:02.825Z,19.60
2023-02-04T22:51:29.352Z,21.20
2023-02-04T22:53:56.170Z,19.97
2023-02-04T22:56:22.723Z,20.83
2023-02-04T22:58:50.192Z,18.80
2023-02-04T23:01:17.452Z,20.40
2023-02-04T23:03:44.000Z,26.00
2023-02-04T23:06:10.619Z,19.63
2023-02-04T23:08:37.217Z,19.10
2023-02-04T23:11:04.036Z,20.20
2023-02-04T23:13:30.680Z,20.83
2023-02-04T23:15:57.204Z,22.70
2023-02-04T23:18:23.716Z,22.87
2023-02-04T23:20:50.236Z,19.23
2023-02-04T23:23:19.645Z,23.27
2023-02-04T23:25:47.011Z,24.07
2023-02-04T23:28:14.913Z,23.67
2023-02-04T23:30:41.622Z,34.30
2023-02-04T23:33:08.719Z,29.20
2023-02-04T23:35:35.574Z,23.27
2023-02-04T23:38:02.911Z,19.23
2023-02-04T23:40:29.420Z,16.27
2023-02-04T23:42:55.968Z,22.03
2023-02-04T23:45:22.690Z,24.73
2023-02-04T23:47:49.296Z,27.47
2023-02-04T23:50:16.471Z,26.00
2023-02-04T23:52:43.425Z,25.43
2023-02-04T23:55:09.977Z,24.33
2023-02-04T23:57:36.517Z,21.17
